EXI weather

Excursion Inlet Seaplane Base
Excursion Inlet, Alaska, United States

Public forecast

Using degrees Fahrenheit for public forecast. Weather courtesy of forecast.io.

METAR (pilot weather report)

Closest report is Gustavus Airport, 8.1 nm (15.0 km) W. Retrieved 2019/05/26 15:56 UTC (34 minutes ago):

PAGS 261556Z AUTO 00000KT 10SM CLR 11/08 A3006 RMK AO2 SLP181 T01060078

TAF (pilot weather forecast)

Closest forecast is Gustavus Airport, 8.1 nm (15.0 km) W. Retrieved 2019/05/26 12:39 UTC (4 hours ago):

TAF PAGS 261137Z 2612/2712 VRB03KT P6SM SKC FM261800 22008KT P6SM SKC FM270400 VRB03KT P6SM SKC AMD LTD TO CLD VIS AND WIND